createdAt,value
2023-01-27T00:00:14.591Z,-1.32
2023-01-27T00:03:16.290Z,-1.29
2023-01-27T00:06:19.204Z,-1.21
2023-01-27T00:09:20.216Z,-1.21
2023-01-27T00:12:50.218Z,-1.24
2023-01-27T00:15:52.254Z,-1.35
2023-01-27T00:18:54.396Z,-1.42
2023-01-27T00:22:13.223Z,-1.43
2023-01-27T00:25:14.356Z,-1.43
2023-01-27T00:28:14.274Z,-1.44
2023-01-27T00:31:34.399Z,-1.54
2023-01-27T00:34:36.538Z,-1.63
2023-01-27T00:37:36.243Z,-1.66
2023-01-27T00:40:36.254Z,-1.66
2023-01-27T00:43:37.267Z,-1.70
2023-01-27T00:46:41.652Z,-1.77
2023-01-27T00:49:42.258Z,-1.79
2023-01-27T00:52:45.287Z,-1.78
2023-01-27T00:55:46.292Z,-1.79
2023-01-27T00:58:46.322Z,-1.86
2023-01-27T01:01:51.297Z,-1.95
2023-01-27T01:04:52.300Z,-2.01
2023-01-27T01:07:53.299Z,-2.01
2023-01-27T01:10:56.277Z,-2.02
2023-01-27T01:13:56.769Z,-2.00
2023-01-27T01:16:58.333Z,-1.99
2023-01-27T01:19:58.322Z,-2.00
2023-01-27T01:22:59.371Z,-2.04
2023-01-27T01:26:06.449Z,-2.11
2023-01-27T01:29:08.488Z,-2.09
2023-01-27T01:32:09.357Z,-2.06
2023-01-27T01:35:11.579Z,-2.02
2023-01-27T01:38:14.650Z,-1.95
2023-01-27T01:41:15.361Z,-1.96
2023-01-27T01:44:34.321Z,-1.98
2023-01-27T01:47:39.404Z,-1.96
2023-01-27T01:50:41.661Z,-1.92
2023-01-27T01:53:57.827Z,-1.91
2023-01-27T01:57:05.445Z,-1.88
2023-01-27T02:00:12.951Z,-1.95
2023-01-27T02:03:13.365Z,-2.01
2023-01-27T02:06:15.646Z,-2.05
2023-01-27T02:09:19.371Z,-2.02
2023-01-27T02:12:20.474Z,-2.08
2023-01-27T02:15:21.426Z,-2.19
2023-01-27T02:18:23.433Z,-2.23
2023-01-27T02:21:25.828Z,-2.21
2023-01-27T02:24:26.512Z,-2.18
2023-01-27T02:27:28.539Z,-2.12
2023-01-27T02:30:31.909Z,-2.10
2023-01-27T02:33:32.445Z,-2.17
2023-01-27T02:36:38.437Z,-2.21
2023-01-27T02:39:41.469Z,-2.24
2023-01-27T02:42:41.451Z,-2.22
2023-01-27T02:45:43.460Z,-2.21
2023-01-27T02:48:46.367Z,-2.24
2023-01-27T02:51:46.578Z,-2.22
2023-01-27T02:54:47.471Z,-2.19
2023-01-27T02:57:50.516Z,-2.15
2023-01-27T03:01:05.662Z,-2.10
2023-01-27T03:04:05.563Z,-2.12
2023-01-27T03:07:08.495Z,-2.10
2023-01-27T03:10:12.785Z,-2.12
2023-01-27T03:13:16.763Z,-2.14
2023-01-27T03:16:37.509Z,-2.15
2023-01-27T03:19:37.552Z,-2.15
2023-01-27T03:22:38.571Z,-2.13
2023-01-27T03:25:38.757Z,-2.09
2023-01-27T03:28:39.509Z,-2.07
2023-01-27T03:31:44.581Z,-2.03
2023-01-27T03:34:46.581Z,-2.03
2023-01-27T03:38:11.538Z,-2.10
2023-01-27T03:41:36.531Z,-2.10
2023-01-27T03:44:54.634Z,-2.12
2023-01-27T03:47:54.674Z,-2.13
2023-01-27T03:50:59.644Z,-2.14
2023-01-27T03:53:59.570Z,-2.13
2023-01-27T03:57:00.598Z,-2.11
2023-01-27T04:00:00.585Z,-2.09
2023-01-27T04:03:25.713Z,-2.08
2023-01-27T04:06:51.852Z,-2.09
2023-01-27T04:09:52.602Z,-2.11
2023-01-27T04:12:52.594Z,-2.11
2023-01-27T04:15:53.811Z,-2.09
2023-01-27T04:18:54.652Z,-2.07
2023-01-27T04:21:55.623Z,-2.07
2023-01-27T04:24:59.634Z,-2.05
2023-01-27T04:28:00.681Z,-2.11
2023-01-27T04:31:00.744Z,-2.22
2023-01-27T04:34:04.316Z,-2.33
2023-01-27T04:37:04.922Z,-2.42
2023-01-27T04:40:04.618Z,-2.40
2023-01-27T04:43:06.642Z,-2.39
2023-01-27T04:46:06.913Z,-2.32
2023-01-27T04:49:06.677Z,-2.26
2023-01-27T04:52:06.663Z,-2.24
2023-01-27T04:55:10.679Z,-2.22
2023-01-27T04:58:12.789Z,-2.22
2023-01-27T05:01:12.693Z,-2.24
2023-01-27T05:04:13.031Z,-2.27
2023-01-27T05:07:13.766Z,-2.28
2023-01-27T05:10:13.902Z,-2.29
2023-01-27T05:13:14.990Z,-2.30
2023-01-27T05:16:29.871Z,-2.30
2023-01-27T05:19:29.667Z,-2.32
2023-01-27T05:22:29.739Z,-2.38
2023-01-27T05:25:29.726Z,-2.41
2023-01-27T05:28:29.767Z,-2.50
2023-01-27T05:31:40.203Z,-2.66
2023-01-27T05:34:43.761Z,-2.75
2023-01-27T05:37:43.715Z,-2.75
2023-01-27T05:40:43.763Z,-2.74
2023-01-27T05:43:45.798Z,-2.74
2023-01-27T05:46:45.799Z,-2.74
2023-01-27T05:49:45.733Z,-2.72
2023-01-27T05:52:47.765Z,-2.67
2023-01-27T05:55:47.781Z,-2.68
2023-01-27T05:58:48.805Z,-2.73
2023-01-27T06:01:49.795Z,-2.75
2023-01-27T06:04:53.951Z,-2.70
2023-01-27T06:07:57.596Z,-2.65
2023-01-27T06:10:58.915Z,-2.66
2023-01-27T06:14:01.788Z,-2.64
2023-01-27T06:17:03.002Z,-2.60
2023-01-27T06:20:03.848Z,-2.54
2023-01-27T06:23:05.255Z,-2.55
2023-01-27T06:26:06.844Z,-2.54
2023-01-27T06:29:09.822Z,-2.59
2023-01-27T06:32:09.936Z,-2.65
2023-01-27T06:35:12.054Z,-2.66
2023-01-27T06:38:13.052Z,-2.60
2023-01-27T06:41:13.056Z,-2.50
2023-01-27T06:44:12.915Z,-2.43
2023-01-27T06:47:12.845Z,-2.41
2023-01-27T06:50:15.244Z,-2.40
2023-01-27T06:53:23.441Z,-2.37
2023-01-27T06:56:29.256Z,-2.36
2023-01-27T06:59:50.028Z,-2.47
2023-01-27T07:02:50.033Z,-2.61
2023-01-27T07:05:54.106Z,-2.57
2023-01-27T07:08:59.949Z,-2.47
2023-01-27T07:12:03.132Z,-2.52
2023-01-27T07:15:04.914Z,-2.67
2023-01-27T07:18:08.137Z,-2.76
2023-01-27T07:21:08.550Z,-2.81
2023-01-27T07:24:08.969Z,-2.78
2023-01-27T07:27:11.913Z,-2.73
2023-01-27T07:30:14.409Z,-2.80
2023-01-27T07:33:23.324Z,-2.88
2023-01-27T07:36:24.944Z,-2.98
2023-01-27T07:39:24.903Z,-2.98
2023-01-27T07:42:26.066Z,-2.91
2023-01-27T07:45:27.168Z,-2.85
2023-01-27T07:48:29.247Z,-2.78
2023-01-27T07:51:28.991Z,-2.74
2023-01-27T07:54:28.965Z,-2.70
2023-01-27T07:57:30.972Z,-2.68
2023-01-27T08:00:34.944Z,-2.55
2023-01-27T08:03:39.065Z,-2.39
2023-01-27T08:06:42.968Z,-2.24
2023-01-27T08:09:44.988Z,-2.10
2023-01-27T08:12:46.084Z,-1.98
2023-01-27T08:15:47.146Z,-1.87
2023-01-27T08:18:48.014Z,-1.89
2023-01-27T08:21:49.997Z,-1.96
2023-01-27T08:24:51.025Z,-1.97
2023-01-27T08:27:53.092Z,-2.03
2023-01-27T08:31:01.621Z,-2.07
2023-01-27T08:34:05.042Z,-2.09
2023-01-27T08:37:06.061Z,-2.03
2023-01-27T08:40:06.093Z,-1.98
2023-01-27T08:43:08.125Z,-1.87
2023-01-27T08:46:11.254Z,-1.77
2023-01-27T08:49:12.107Z,-1.70
2023-01-27T08:52:15.085Z,-1.64
2023-01-27T08:55:17.278Z,-1.54
2023-01-27T08:58:17.059Z,-1.47
2023-01-27T09:01:17.290Z,-1.45
2023-01-27T09:04:19.501Z,-1.55
2023-01-27T09:07:22.603Z,-1.61
2023-01-27T09:10:23.341Z,-1.56
2023-01-27T09:13:24.307Z,-1.51
2023-01-27T09:16:24.130Z,-1.46
2023-01-27T09:19:26.103Z,-1.44
2023-01-27T09:22:26.102Z,-1.45
2023-01-27T09:25:28.106Z,-1.38
2023-01-27T09:28:28.152Z,-1.33
2023-01-27T09:31:29.463Z,-1.29
2023-01-27T09:34:29.125Z,-1.27
2023-01-27T09:37:30.285Z,-1.16
2023-01-27T09:41:02.143Z,-1.08
2023-01-27T09:44:09.154Z,-0.98
2023-01-27T09:47:20.186Z,-0.94
2023-01-27T09:50:59.144Z,-0.96
2023-01-27T09:54:11.240Z,-0.98
2023-01-27T09:57:21.140Z,-0.95
2023-01-27T10:00:51.301Z,-0.88
2023-01-27T10:04:05.178Z,-0.78
2023-01-27T10:07:23.257Z,-0.72
2023-01-27T10:10:30.158Z,-0.66
2023-01-27T10:13:41.228Z,-0.58
2023-01-27T10:16:58.188Z,-0.51
2023-01-27T10:20:12.565Z,-0.45
2023-01-27T10:23:45.240Z,-0.35
2023-01-27T10:26:56.234Z,-0.22
2023-01-27T10:30:33.397Z,-0.11
2023-01-27T10:33:33.213Z,0.02
2023-01-27T10:36:49.442Z,0.21
2023-01-27T10:40:06.245Z,0.33
2023-01-27T10:43:36.191Z,0.27
2023-01-27T10:46:48.313Z,0.04
2023-01-27T10:49:57.290Z,0.03
2023-01-27T10:53:19.267Z,0.10
2023-01-27T10:56:31.245Z,0.19
2023-01-27T11:00:18.319Z,0.21
2023-01-27T11:03:27.276Z,0.05
2023-01-27T11:06:47.278Z,-0.13
2023-01-27T11:09:52.283Z,-0.18
2023-01-27T11:12:55.366Z,-0.10
2023-01-27T11:15:55.297Z,-0.09
2023-01-27T11:18:55.344Z,-0.08
2023-01-27T11:22:08.230Z,-0.11
2023-01-27T11:25:45.344Z,-0.23
2023-01-27T11:29:05.317Z,-0.27
2023-01-27T11:32:16.441Z,-0.25
2023-01-27T11:35:17.341Z,-0.26
2023-01-27T11:38:18.485Z,-0.21
2023-01-27T11:41:19.341Z,-0.24
2023-01-27T11:44:21.381Z,-0.33
2023-01-27T11:47:32.799Z,-0.35
2023-01-27T11:50:33.452Z,-0.34
2023-01-27T11:53:42.432Z,-0.32
2023-01-27T11:56:42.341Z,-0.36
2023-01-27T11:59:51.495Z,-0.39
2023-01-27T12:03:01.426Z,-0.38
2023-01-27T12:06:07.431Z,-0.38
2023-01-27T12:09:07.486Z,-0.32
2023-01-27T12:12:27.363Z,-0.31
2023-01-27T12:15:31.401Z,-0.36
2023-01-27T12:18:34.504Z,-0.32
2023-01-27T12:21:35.655Z,-0.37
2023-01-27T12:24:40.433Z,-0.41
2023-01-27T12:27:41.374Z,-0.40
2023-01-27T12:30:48.481Z,-0.38
2023-01-27T12:33:54.505Z,-0.43
2023-01-27T12:36:56.506Z,-0.45
2023-01-27T12:39:59.414Z,-0.43
2023-01-27T12:43:15.561Z,-0.43
2023-01-27T12:46:26.522Z,-0.43
2023-01-27T12:49:27.525Z,-0.41
2023-01-27T12:52:32.462Z,-0.41
2023-01-27T12:56:13.452Z,-0.41
2023-01-27T12:59:15.546Z,-0.44
2023-01-27T13:02:34.518Z,-0.41
2023-01-27T14:20:00.168Z,-1.53
2023-01-27T14:23:16.025Z,-1.50
2023-01-27T14:26:22.150Z,-1.50
2023-01-27T14:29:46.081Z,-1.59
2023-01-27T14:33:14.087Z,-1.73
2023-01-27T14:36:32.140Z,-1.84
2023-01-27T14:40:02.121Z,-1.94
2023-01-27T14:43:18.239Z,-1.97
2023-01-27T14:46:35.160Z,-1.94
2023-01-27T14:50:12.134Z,-2.03
2023-01-27T14:53:16.311Z,-2.06
2023-01-27T14:56:34.113Z,-2.03
2023-01-27T14:59:56.159Z,-2.08
2023-01-27T15:03:14.186Z,-2.10
2023-01-27T15:06:39.886Z,-2.10
2023-01-27T15:09:53.318Z,-2.12
2023-01-27T15:13:01.286Z,-2.11
2023-01-27T15:16:22.192Z,-2.15
2023-01-27T15:19:47.171Z,-2.17
2023-01-27T15:22:56.200Z,-2.16
2023-01-27T15:26:07.222Z,-2.15
2023-01-27T15:29:08.157Z,-2.19
2023-01-27T15:32:36.414Z,-2.18
2023-01-27T15:35:50.224Z,-2.21
2023-01-27T15:38:53.216Z,-2.28
2023-01-27T15:42:07.214Z,-2.37
2023-01-27T15:45:13.429Z,-2.43
2023-01-27T15:48:24.237Z,-2.43
2023-01-27T15:51:32.233Z,-2.42
2023-01-27T15:54:41.266Z,-2.42
2023-01-27T15:57:45.222Z,-2.45
2023-01-27T16:00:50.270Z,-2.47
2023-01-27T16:03:55.349Z,-2.50
2023-01-27T16:07:08.259Z,-2.53
2023-01-27T16:10:14.628Z,-2.49
2023-01-27T16:13:34.301Z,-2.46
2023-01-27T16:16:35.312Z,-2.39
2023-01-27T16:20:06.231Z,-2.41
2023-01-27T16:23:11.499Z,-2.44
2023-01-27T16:26:21.304Z,-2.47
2023-01-27T16:29:48.316Z,-2.54
2023-01-27T16:32:54.387Z,-2.58
2023-01-27T16:36:01.870Z,-2.54
2023-01-27T16:39:07.723Z,-2.54
2023-01-27T16:42:11.427Z,-2.53
2023-01-27T16:45:17.291Z,-2.58
2023-01-27T16:48:43.350Z,-2.63
2023-01-27T16:51:43.333Z,-2.61
2023-01-27T16:54:50.376Z,-2.60
2023-01-27T16:57:56.337Z,-2.64
2023-01-27T17:00:58.386Z,-2.64
2023-01-27T17:04:07.609Z,-2.65
2023-01-27T17:07:22.399Z,-2.63
2023-01-27T17:10:34.660Z,-2.62
2023-01-27T17:13:42.346Z,-2.64
2023-01-27T17:16:50.414Z,-2.65
2023-01-27T17:19:51.768Z,-2.69
2023-01-27T17:23:00.374Z,-2.71
2023-01-27T17:26:01.447Z,-2.68
2023-01-27T17:29:02.433Z,-2.69
2023-01-27T17:32:02.426Z,-2.80
2023-01-27T17:35:11.737Z,-2.92
2023-01-27T17:38:50.544Z,-2.92
2023-01-27T17:41:51.442Z,-2.92
2023-01-27T17:44:51.412Z,-2.93
2023-01-27T17:47:51.953Z,-2.94
2023-01-27T17:50:53.732Z,-2.91
2023-01-27T17:53:55.643Z,-2.84
2023-01-27T17:56:56.690Z,-2.80
2023-01-27T17:59:59.453Z,-2.80
2023-01-27T18:03:17.454Z,-2.84
2023-01-27T18:06:17.500Z,-2.94
2023-01-27T18:09:34.126Z,-2.98
2023-01-27T18:13:03.924Z,-2.96
2023-01-27T18:16:15.957Z,-2.89
2023-01-27T18:19:31.551Z,-2.83
2023-01-27T18:22:34.418Z,-2.80
2023-01-27T18:25:38.024Z,-2.79
2023-01-27T18:28:38.484Z,-2.82
2023-01-27T18:31:49.303Z,-2.81
2023-01-27T18:35:01.906Z,-2.77
2023-01-27T18:38:13.503Z,-2.74
2023-01-27T18:41:26.989Z,-2.74
2023-01-27T18:44:33.722Z,-2.70
2023-01-27T18:47:43.531Z,-2.62
2023-01-27T18:50:43.725Z,-2.60
2023-01-27T18:53:43.589Z,-2.59
2023-01-27T18:56:44.650Z,-2.53
2023-01-27T18:59:47.985Z,-2.49
2023-01-27T19:02:51.858Z,-2.45
2023-01-27T19:05:54.575Z,-2.43
2023-01-27T19:08:58.917Z,-2.41
2023-01-27T19:12:03.101Z,-2.44
2023-01-27T19:15:07.665Z,-2.56
2023-01-27T19:18:10.840Z,-2.57
2023-01-27T19:21:18.817Z,-2.52
2023-01-27T19:24:18.811Z,-2.55
2023-01-27T19:27:25.677Z,-2.61
2023-01-27T19:30:43.171Z,-2.60
2023-01-27T19:33:45.587Z,-2.53
2023-01-27T19:36:55.593Z,-2.49
2023-01-27T19:39:57.856Z,-2.45
2023-01-27T19:42:58.606Z,-2.40
2023-01-27T19:46:03.683Z,-2.39
2023-01-27T19:49:04.965Z,-2.39
2023-01-27T19:52:05.099Z,-2.39
2023-01-27T19:55:05.661Z,-2.50
2023-01-27T19:58:06.605Z,-2.53
2023-01-27T20:01:07.645Z,-2.49
2023-01-27T20:04:08.702Z,-2.51
2023-01-27T20:07:10.656Z,-2.56
2023-01-27T20:10:14.334Z,-2.54
2023-01-27T20:13:17.874Z,-2.54
2023-01-27T20:16:20.712Z,-2.53
2023-01-27T20:19:25.991Z,-2.56
2023-01-27T20:22:28.851Z,-2.59
2023-01-27T20:25:30.619Z,-2.52
2023-01-27T20:28:34.994Z,-2.52
2023-01-27T20:31:40.871Z,-2.56
2023-01-27T20:34:49.399Z,-2.61
2023-01-27T20:37:51.881Z,-2.59
2023-01-27T20:40:52.053Z,-2.54
2023-01-27T20:43:53.855Z,-2.54
2023-01-27T20:46:56.477Z,-2.52
2023-01-27T20:50:04.311Z,-2.51
2023-01-27T20:53:09.009Z,-2.49
2023-01-27T20:56:13.379Z,-2.47
2023-01-27T20:59:17.426Z,-2.50
2023-01-27T21:02:22.136Z,-2.52
2023-01-27T21:08:50.811Z,-2.49
2023-01-27T21:12:13.891Z,-2.45
2023-01-27T21:15:42.874Z,-2.44
2023-01-27T21:19:19.550Z,-2.47
2023-01-27T21:22:36.459Z,-2.46
2023-01-27T21:29:45.138Z,-2.67
2023-01-27T21:33:02.752Z,-2.69
2023-01-27T21:36:10.992Z,-2.72
2023-01-27T21:39:21.744Z,-2.73
2023-01-27T21:42:45.836Z,-2.74
2023-01-27T21:45:47.989Z,-2.82
2023-01-27T21:48:53.145Z,-2.89
2023-01-27T21:51:57.002Z,-2.92
2023-01-27T21:54:57.787Z,-3.00
2023-01-27T21:58:00.790Z,-3.14
2023-01-27T22:01:04.851Z,-3.24
2023-01-27T22:04:07.147Z,-3.33
2023-01-27T22:07:07.910Z,-3.40
2023-01-27T22:10:10.781Z,-3.48
2023-01-27T22:13:11.825Z,-3.51
2023-01-27T22:16:12.858Z,-3.52
2023-01-27T22:19:13.785Z,-3.56
2023-01-27T22:25:38.782Z,-3.68
2023-01-27T22:28:42.636Z,-3.72
2023-01-27T22:31:51.343Z,-3.72
2023-01-27T22:34:53.848Z,-3.71
2023-01-27T22:37:55.838Z,-3.73
2023-01-27T22:41:15.166Z,-3.76
2023-01-27T22:44:25.269Z,-3.75
2023-01-27T22:47:26.981Z,-3.78
2023-01-27T22:50:30.898Z,-3.80
2023-01-27T22:53:48.920Z,-3.81
2023-01-27T22:56:56.828Z,-3.81
2023-01-27T23:00:00.882Z,-3.84
2023-01-27T23:03:04.208Z,-3.85
2023-01-27T23:06:18.948Z,-3.84
2023-01-27T23:09:27.892Z,-3.92
2023-01-27T23:12:29.932Z,-3.92
2023-01-27T23:15:32.908Z,-3.91
2023-01-27T23:18:35.954Z,-3.92
2023-01-27T23:21:40.223Z,-3.90
2023-01-27T23:24:42.030Z,-3.86
2023-01-27T23:27:45.068Z,-3.81
2023-01-27T23:30:48.903Z,-3.80
2023-01-27T23:33:58.145Z,-3.83
2023-01-27T23:37:01.913Z,-3.85
2023-01-27T23:40:02.535Z,-3.85
2023-01-27T23:43:06.405Z,-3.79
2023-01-27T23:46:08.008Z,-3.76
2023-01-27T23:49:13.961Z,-3.77
2023-01-27T23:52:13.976Z,-3.77
2023-01-27T23:55:14.256Z,-3.78
2023-01-27T23:58:16.000Z,-3.79
